createdAt,value
2022-12-28T00:00:19.551Z,87.20
2022-12-28T00:01:19.600Z,87.00
2022-12-28T00:02:19.611Z,86.80
2022-12-28T00:03:19.511Z,87.20
2022-12-28T00:04:19.533Z,87.20
2022-12-28T00:05:19.513Z,87.30
2022-12-28T00:06:19.565Z,87.40
2022-12-28T00:07:19.855Z,87.40
2022-12-28T00:08:19.563Z,87.80
2022-12-28T00:09:19.422Z,87.80
2022-12-28T00:10:19.479Z,87.60
2022-12-28T00:11:26.569Z,87.30
2022-12-28T00:12:19.495Z,87.60
2022-12-28T00:13:19.912Z,87.64
2022-12-28T00:14:20.317Z,87.04
2022-12-28T00:15:19.506Z,86.84
2022-12-28T00:16:19.433Z,87.14
2022-12-28T00:17:19.379Z,87.34
2022-12-28T00:18:19.435Z,87.44
2022-12-28T00:19:19.436Z,87.44
2022-12-28T00:20:19.435Z,87.54
2022-12-28T00:21:19.458Z,87.74
2022-12-28T00:22:19.339Z,87.84
2022-12-28T00:23:19.354Z,87.64
2022-12-28T00:24:19.354Z,87.44
2022-12-28T00:25:19.365Z,87.54
2022-12-28T00:26:19.874Z,87.34
2022-12-28T00:27:19.274Z,87.24
2022-12-28T00:28:19.274Z,87.44
2022-12-28T00:29:19.297Z,87.54
2022-12-28T00:30:19.288Z,88.04
2022-12-28T00:31:19.812Z,88.13
2022-12-28T00:32:19.297Z,88.04
2022-12-28T00:33:19.203Z,87.94
2022-12-28T00:34:19.210Z,88.34
2022-12-28T00:35:19.218Z,88.58
2022-12-28T00:36:19.220Z,88.58
2022-12-28T00:37:19.224Z,88.58
2022-12-28T00:38:19.238Z,88.58
2022-12-28T00:39:19.270Z,88.88
2022-12-28T00:40:23.922Z,88.88
2022-12-28T00:41:19.168Z,88.78
2022-12-28T00:42:19.176Z,88.88
2022-12-28T00:43:19.174Z,88.88
2022-12-28T00:44:19.069Z,88.78
2022-12-28T00:45:19.084Z,88.78
2022-12-28T00:46:19.183Z,88.58
2022-12-28T00:47:19.102Z,88.88
2022-12-28T00:48:19.105Z,88.68
2022-12-28T00:49:19.113Z,88.58
2022-12-28T00:50:19.011Z,88.48
2022-12-28T00:51:19.016Z,88.78
2022-12-28T00:52:19.044Z,88.68
2022-12-28T00:53:19.136Z,88.58
2022-12-28T00:54:19.031Z,88.88
2022-12-28T00:55:19.068Z,88.58
2022-12-28T00:56:18.964Z,88.38
2022-12-28T00:57:18.966Z,88.18
2022-12-28T00:58:18.972Z,88.38
2022-12-28T00:59:18.965Z,87.98
2022-12-28T01:00:19.396Z,88.08
2022-12-28T01:01:19.097Z,88.08
2022-12-28T01:02:18.860Z,88.88
2022-12-28T01:03:18.933Z,88.98
2022-12-28T01:04:18.892Z,89.07
2022-12-28T01:05:18.833Z,88.98
2022-12-28T01:06:18.876Z,89.14
2022-12-28T01:07:18.841Z,89.23
2022-12-28T01:08:18.823Z,89.14
2022-12-28T01:09:18.790Z,88.73
2022-12-28T01:10:18.824Z,88.34
2022-12-28T01:11:18.803Z,88.73
2022-12-28T01:12:18.801Z,88.98
2022-12-28T01:13:18.870Z,88.73
2022-12-28T01:14:18.706Z,88.68
2022-12-28T01:15:18.874Z,88.88
2022-12-28T01:16:18.867Z,89.07
2022-12-28T01:17:18.785Z,89.18
2022-12-28T01:18:18.716Z,89.38
2022-12-28T01:19:18.812Z,89.58
2022-12-28T01:20:18.701Z,89.68
2022-12-28T01:21:18.634Z,89.87
2022-12-28T01:22:18.662Z,89.78
2022-12-28T01:23:18.676Z,89.87
2022-12-28T01:24:18.679Z,89.87
2022-12-28T01:25:18.681Z,89.98
2022-12-28T01:26:18.585Z,90.17
2022-12-28T01:27:18.631Z,90.37
2022-12-28T01:28:18.658Z,90.58
2022-12-28T01:29:18.584Z,90.67
2022-12-28T01:30:18.659Z,90.37
2022-12-28T01:31:18.666Z,90.37
2022-12-28T01:32:18.566Z,90.37
2022-12-28T01:33:18.591Z,90.77
2022-12-28T01:34:18.542Z,90.77
2022-12-28T01:35:18.589Z,90.88
2022-12-28T01:36:18.507Z,90.97
2022-12-28T01:37:18.553Z,90.77
2022-12-28T01:38:18.569Z,90.67
2022-12-28T01:39:18.540Z,90.47
2022-12-28T01:40:18.482Z,90.58
2022-12-28T01:41:18.498Z,90.37
2022-12-28T01:42:18.545Z,90.13
2022-12-28T01:43:29.846Z,90.03
2022-12-28T01:44:18.450Z,90.03
2022-12-28T01:45:18.412Z,89.94
2022-12-28T01:46:18.660Z,90.03
2022-12-28T01:47:18.418Z,90.03
2022-12-28T01:48:18.491Z,89.94
2022-12-28T01:49:18.433Z,89.73
2022-12-28T01:50:18.390Z,89.34
2022-12-28T01:51:18.342Z,89.34
2022-12-28T01:52:18.404Z,89.43
2022-12-28T01:53:18.404Z,89.43
2022-12-28T01:54:18.363Z,89.53
2022-12-28T01:55:18.841Z,89.43
2022-12-28T01:56:18.332Z,89.34
2022-12-28T01:57:18.326Z,89.43
2022-12-28T01:58:18.528Z,89.34
2022-12-28T01:59:18.347Z,89.34
2022-12-28T02:00:18.264Z,88.54
2022-12-28T02:01:18.453Z,88.54
2022-12-28T02:02:18.402Z,88.93
2022-12-28T02:03:18.233Z,89.23
2022-12-28T02:04:18.254Z,89.34
2022-12-28T02:05:18.365Z,89.34
2022-12-28T02:06:18.216Z,89.23
2022-12-28T02:07:18.302Z,89.14
2022-12-28T02:08:18.175Z,89.14
2022-12-28T02:09:18.190Z,89.14
2022-12-28T02:10:44.493Z,89.14
2022-12-28T02:11:18.131Z,89.03
2022-12-28T02:12:18.141Z,88.93
2022-12-28T02:13:18.285Z,88.84
2022-12-28T02:14:18.836Z,88.73
2022-12-28T02:15:22.888Z,88.73
2022-12-28T02:16:18.302Z,88.54
2022-12-28T02:17:18.070Z,88.24
2022-12-28T02:18:18.148Z,88.34
2022-12-28T02:19:18.089Z,88.54
2022-12-28T02:20:18.073Z,88.04
2022-12-28T02:21:18.048Z,87.64
2022-12-28T02:22:18.165Z,87.44
2022-12-28T02:23:18.021Z,87.64
2022-12-28T02:24:18.021Z,88.04
2022-12-28T02:25:18.038Z,88.28
2022-12-28T02:26:18.037Z,88.43
2022-12-28T02:27:17.998Z,88.54
2022-12-28T02:28:17.947Z,88.54
2022-12-28T02:29:18.112Z,88.34
2022-12-28T02:30:17.961Z,88.13
2022-12-28T02:31:18.081Z,87.94
2022-12-28T02:32:17.971Z,87.94
2022-12-28T02:33:18.085Z,87.88
2022-12-28T02:34:17.948Z,88.28
2022-12-28T02:35:17.970Z,88.38
2022-12-28T02:36:18.708Z,88.38
2022-12-28T02:37:18.375Z,87.98
2022-12-28T02:38:17.868Z,87.88
2022-12-28T02:39:17.810Z,87.98
2022-12-28T02:40:17.884Z,88.28
2022-12-28T02:41:17.892Z,88.28
2022-12-28T02:42:17.843Z,88.68
2022-12-28T02:43:17.899Z,88.78
2022-12-28T02:44:17.847Z,89.18
2022-12-28T02:45:17.823Z,89.18
2022-12-28T02:46:17.765Z,89.18
2022-12-28T02:47:17.821Z,89.18
2022-12-28T02:48:17.770Z,89.07
2022-12-28T02:49:17.778Z,88.58
2022-12-28T02:50:17.786Z,88.58
2022-12-28T02:51:17.686Z,88.68
2022-12-28T02:52:17.695Z,88.98
2022-12-28T02:53:17.735Z,88.78
2022-12-28T02:54:17.705Z,89.07
2022-12-28T02:55:17.714Z,89.38
2022-12-28T02:56:17.697Z,89.38
2022-12-28T02:57:17.796Z,89.48
2022-12-28T02:58:17.678Z,89.48
2022-12-28T02:59:17.646Z,89.58
2022-12-28T03:00:17.647Z,89.38
2022-12-28T03:01:17.832Z,89.48
2022-12-28T03:02:17.679Z,89.78
2022-12-28T03:03:17.597Z,89.98
2022-12-28T03:04:17.578Z,90.08
2022-12-28T03:05:17.612Z,90.08
2022-12-28T03:06:19.668Z,90.08
2022-12-28T03:07:17.650Z,89.87
2022-12-28T03:08:17.529Z,89.48
2022-12-28T03:09:17.573Z,89.58
2022-12-28T03:10:17.557Z,89.98
2022-12-28T03:11:17.573Z,89.87
2022-12-28T03:12:17.590Z,89.87
2022-12-28T03:13:17.598Z,89.68
2022-12-28T03:14:17.503Z,89.07
2022-12-28T03:15:17.503Z,89.48
2022-12-28T03:16:17.598Z,89.78
2022-12-28T03:17:17.523Z,89.48
2022-12-28T03:18:17.422Z,89.52
2022-12-28T03:19:18.653Z,89.62
2022-12-28T03:20:17.498Z,89.72
2022-12-28T03:21:17.421Z,89.92
2022-12-28T03:22:17.418Z,89.92
2022-12-28T03:23:17.451Z,90.22
2022-12-28T03:24:17.421Z,90.32
2022-12-28T03:25:17.433Z,90.22
2022-12-28T03:26:17.334Z,90.02
2022-12-28T03:27:17.351Z,90.12
2022-12-28T03:28:17.350Z,90.02
2022-12-28T03:29:17.302Z,89.72
2022-12-28T03:30:17.385Z,89.72
2022-12-28T03:31:17.378Z,89.82
2022-12-28T03:32:17.888Z,90.02
2022-12-28T03:33:17.338Z,89.82
2022-12-28T03:34:17.289Z,89.68
2022-12-28T03:35:17.328Z,89.48
2022-12-28T03:36:17.300Z,89.42
2022-12-28T03:37:17.237Z,89.68
2022-12-28T03:38:17.216Z,89.68
2022-12-28T03:39:17.223Z,89.87
2022-12-28T03:40:17.226Z,89.68
2022-12-28T03:41:17.174Z,89.58
2022-12-28T03:42:17.390Z,89.07
2022-12-28T03:43:17.152Z,89.18
2022-12-28T03:44:17.156Z,89.32
2022-12-28T03:45:44.343Z,89.52
2022-12-28T03:46:17.169Z,89.62
2022-12-28T03:47:17.177Z,89.92
2022-12-28T03:48:17.372Z,90.02
2022-12-28T03:49:17.134Z,89.92
2022-12-28T03:50:17.056Z,90.02
2022-12-28T03:51:17.131Z,90.22
2022-12-28T03:52:17.145Z,90.62
2022-12-28T03:53:17.165Z,90.81
2022-12-28T03:54:17.431Z,90.81
2022-12-28T03:55:17.059Z,90.81
2022-12-28T03:56:17.056Z,90.62
2022-12-28T03:57:17.051Z,90.52
2022-12-28T03:58:16.994Z,90.42
2022-12-28T03:59:16.984Z,90.22
2022-12-28T04:00:16.992Z,90.32
2022-12-28T04:01:17.025Z,90.42
2022-12-28T04:02:17.040Z,90.32
2022-12-28T04:03:17.010Z,90.52
2022-12-28T04:04:16.932Z,90.42
2022-12-28T04:05:16.919Z,90.32
2022-12-28T04:06:16.926Z,90.22
2022-12-28T04:07:16.897Z,89.92
2022-12-28T04:08:16.937Z,89.72
2022-12-28T04:09:16.874Z,89.72
2022-12-28T04:10:16.858Z,89.92
2022-12-28T04:11:16.862Z,90.22
2022-12-28T04:12:17.392Z,90.52
2022-12-28T04:13:16.842Z,90.52
2022-12-28T04:14:16.812Z,90.42
2022-12-28T04:15:16.843Z,90.32
2022-12-28T04:16:16.894Z,90.12
2022-12-28T04:17:16.807Z,90.12
2022-12-28T04:18:16.907Z,90.02
2022-12-28T04:19:16.781Z,89.92
2022-12-28T04:20:16.752Z,89.82
2022-12-28T04:21:16.792Z,89.62
2022-12-28T04:22:16.733Z,89.42
2022-12-28T04:23:16.748Z,89.32
2022-12-28T04:24:16.741Z,89.42
2022-12-28T04:25:16.749Z,89.72
2022-12-28T04:26:16.722Z,89.82
2022-12-28T04:27:16.735Z,89.72
2022-12-28T04:28:16.666Z,89.82
2022-12-28T04:29:16.645Z,90.02
2022-12-28T04:30:16.715Z,90.42
2022-12-28T04:31:16.739Z,90.42
2022-12-28T04:32:16.629Z,90.42
2022-12-28T04:33:16.639Z,90.32
2022-12-28T04:34:16.704Z,90.42
2022-12-28T04:35:16.612Z,90.42
2022-12-28T04:36:16.663Z,90.42
2022-12-28T04:37:16.636Z,90.32
2022-12-28T04:38:16.563Z,90.22
2022-12-28T04:39:16.573Z,90.12
2022-12-28T04:40:16.614Z,90.12
2022-12-28T04:41:16.521Z,90.02
2022-12-28T04:42:16.531Z,89.82
2022-12-28T04:43:16.497Z,89.72
2022-12-28T04:44:16.495Z,89.22
2022-12-28T04:45:21.765Z,89.12
2022-12-28T04:46:16.626Z,89.22
2022-12-28T04:47:16.583Z,89.12
2022-12-28T04:48:16.488Z,89.22
2022-12-28T04:49:16.495Z,89.52
2022-12-28T04:50:16.450Z,89.52
2022-12-28T04:51:16.446Z,89.52
2022-12-28T04:52:16.514Z,89.62
2022-12-28T04:53:16.420Z,89.42
2022-12-28T04:54:16.426Z,89.32
2022-12-28T04:55:33.049Z,89.32
2022-12-28T04:56:16.377Z,89.32
2022-12-28T04:57:16.442Z,89.42
2022-12-28T04:58:16.497Z,89.32
2022-12-28T04:59:16.363Z,88.32
2022-12-28T05:00:16.360Z,87.52
2022-12-28T05:01:16.461Z,87.73
2022-12-28T05:02:16.460Z,88.12
2022-12-28T05:03:16.328Z,88.32
2022-12-28T05:04:16.285Z,88.72
2022-12-28T05:05:16.333Z,88.62
2022-12-28T05:06:16.305Z,87.42
2022-12-28T05:07:16.304Z,87.02
2022-12-28T05:08:16.324Z,87.23
2022-12-28T05:09:16.278Z,87.32
2022-12-28T05:10:16.275Z,87.73
2022-12-28T05:11:16.241Z,87.92
2022-12-28T05:12:16.202Z,88.02
2022-12-28T05:13:16.252Z,88.42
2022-12-28T05:14:16.307Z,87.92
2022-12-28T05:15:16.223Z,88.02
2022-12-28T05:16:16.267Z,88.22
2022-12-28T05:17:16.846Z,88.12
2022-12-28T05:18:16.202Z,88.22
2022-12-28T05:19:16.170Z,88.42
2022-12-28T05:20:16.839Z,88.62
2022-12-28T05:21:16.169Z,88.62
2022-12-28T05:22:16.141Z,88.32
2022-12-28T05:23:16.130Z,88.22
2022-12-28T05:24:16.075Z,88.52
2022-12-28T05:25:17.996Z,88.62
2022-12-28T05:26:16.106Z,88.52
2022-12-28T05:27:16.070Z,88.52
2022-12-28T05:28:16.069Z,88.52
2022-12-28T05:29:16.099Z,88.72
2022-12-28T05:30:16.037Z,88.82
2022-12-28T05:31:16.570Z,88.82
2022-12-28T05:32:16.041Z,88.72
2022-12-28T05:33:16.057Z,88.92
2022-12-28T05:34:16.006Z,88.82
2022-12-28T05:35:16.036Z,88.62
2022-12-28T05:36:16.061Z,88.42
2022-12-28T05:37:21.841Z,88.32
2022-12-28T05:38:16.039Z,88.42
2022-12-28T05:39:15.937Z,88.62
2022-12-28T05:40:16.764Z,88.82
2022-12-28T05:41:15.959Z,88.92
2022-12-28T05:42:15.992Z,89.22
2022-12-28T05:43:16.036Z,89.52
2022-12-28T05:44:16.376Z,89.42
2022-12-28T05:45:15.927Z,90.16
2022-12-28T05:46:15.947Z,90.66
2022-12-28T05:47:15.881Z,90.86
2022-12-28T05:48:15.822Z,90.86
2022-12-28T05:49:15.839Z,91.06
2022-12-28T05:50:15.848Z,91.16
2022-12-28T05:51:15.810Z,89.31
2022-12-28T05:52:15.853Z,89.75
2022-12-28T05:53:15.826Z,90.95
2022-12-28T05:54:15.793Z,91.85
2022-12-28T05:55:15.779Z,91.95
2022-12-28T05:56:15.741Z,92.05
2022-12-28T05:57:15.851Z,92.25
2022-12-28T05:58:15.758Z,88.39
2022-12-28T05:59:15.747Z,88.89
2022-12-28T06:00:15.720Z,89.69
2022-12-28T06:01:15.741Z,90.19
2022-12-28T06:02:19.175Z,90.19
2022-12-28T06:03:15.817Z,90.79
2022-12-28T06:04:15.682Z,90.89
2022-12-28T06:05:15.691Z,90.89
2022-12-28T06:06:15.649Z,91.09
2022-12-28T06:07:15.660Z,91.39
2022-12-28T06:08:20.952Z,90.59
2022-12-28T06:09:15.665Z,90.39
2022-12-28T06:10:15.625Z,89.99
2022-12-28T06:11:15.639Z,90.59
2022-12-28T06:12:15.589Z,90.69
2022-12-28T06:13:15.602Z,90.89
2022-12-28T06:14:15.557Z,90.69
2022-12-28T06:15:15.552Z,90.59
2022-12-28T06:16:15.628Z,90.69
2022-12-28T06:17:15.571Z,90.89
2022-12-28T06:18:15.536Z,90.79
2022-12-28T06:19:15.570Z,89.59
2022-12-28T06:20:15.488Z,89.23
2022-12-28T06:21:15.492Z,89.83
2022-12-28T06:22:15.495Z,90.13
2022-12-28T06:23:15.511Z,90.03
2022-12-28T06:24:15.460Z,90.03
2022-12-28T06:25:15.475Z,89.94
2022-12-28T06:26:15.436Z,90.33
2022-12-28T06:27:15.435Z,90.33
2022-12-28T06:28:15.436Z,90.33
2022-12-28T06:29:15.449Z,90.63
2022-12-28T06:30:15.398Z,90.63
2022-12-28T06:31:15.407Z,90.33
2022-12-28T06:32:15.406Z,89.64
2022-12-28T06:33:15.369Z,90.03
2022-12-28T06:34:15.440Z,89.53
2022-12-28T06:35:15.438Z,89.33
2022-12-28T06:36:19.884Z,89.53
2022-12-28T06:37:15.655Z,89.68
2022-12-28T06:38:15.343Z,89.48
2022-12-28T06:39:15.305Z,89.48
2022-12-28T06:40:15.458Z,89.28
2022-12-28T06:41:15.499Z,88.98
2022-12-28T06:42:15.276Z,89.48
2022-12-28T06:43:15.290Z,89.87
2022-12-28T06:44:15.244Z,88.87
2022-12-28T06:45:15.256Z,88.48
2022-12-28T06:46:15.348Z,87.87
2022-12-28T06:47:15.258Z,88.87
2022-12-28T06:48:15.214Z,89.58
2022-12-28T06:49:15.276Z,89.87
2022-12-28T06:50:15.176Z,89.68
2022-12-28T06:51:15.243Z,89.37
2022-12-28T06:52:15.233Z,89.53
2022-12-28T06:53:15.449Z,89.83
2022-12-28T06:54:15.189Z,89.83
2022-12-28T06:55:15.154Z,89.83
2022-12-28T06:56:15.129Z,89.73
2022-12-28T06:57:15.137Z,89.43
2022-12-28T06:58:15.132Z,89.43
2022-12-28T06:59:15.115Z,89.33
2022-12-28T07:00:15.186Z,89.23
2022-12-28T07:01:15.268Z,89.33
2022-12-28T07:02:15.378Z,89.03
2022-12-28T07:03:15.096Z,88.53
2022-12-28T07:04:15.112Z,88.64
2022-12-28T07:05:15.411Z,87.53
2022-12-28T07:06:15.067Z,87.93
2022-12-28T07:07:15.084Z,88.53
2022-12-28T07:08:15.028Z,88.13
2022-12-28T07:09:15.008Z,88.03
2022-12-28T07:10:14.983Z,88.23
2022-12-28T07:11:15.103Z,88.03
2022-12-28T07:12:15.022Z,88.43
2022-12-28T07:13:14.940Z,88.43
2022-12-28T07:14:14.956Z,88.73
2022-12-28T07:15:14.953Z,88.53
2022-12-28T07:16:15.036Z,88.73
2022-12-28T07:17:14.905Z,89.03
2022-12-28T07:18:14.878Z,88.83
2022-12-28T07:19:14.881Z,88.93
2022-12-28T07:20:14.895Z,89.03
2022-12-28T07:21:14.853Z,89.23
2022-12-28T07:22:14.916Z,89.23
2022-12-28T07:23:14.868Z,89.14
2022-12-28T07:24:15.108Z,88.93
2022-12-28T07:25:15.025Z,88.73
2022-12-28T07:26:14.895Z,88.53
2022-12-28T07:27:14.790Z,88.43
2022-12-28T07:28:14.804Z,88.93
2022-12-28T07:29:14.740Z,89.03
2022-12-28T07:30:14.818Z,88.93
2022-12-28T07:31:14.884Z,89.23
2022-12-28T07:32:14.798Z,89.33
2022-12-28T07:33:14.730Z,89.33
2022-12-28T07:34:14.818Z,89.03
2022-12-28T07:35:14.718Z,88.28
2022-12-28T07:36:14.690Z,88.57
2022-12-28T07:37:14.694Z,89.48
2022-12-28T07:38:20.932Z,89.58
2022-12-28T07:39:14.645Z,89.48
2022-12-28T07:40:14.645Z,89.68
2022-12-28T07:41:14.615Z,89.87
2022-12-28T07:42:14.646Z,89.98
2022-12-28T07:43:14.630Z,89.64
2022-12-28T07:44:14.645Z,89.53
2022-12-28T07:45:14.610Z,89.03
2022-12-28T07:46:14.733Z,88.83
2022-12-28T07:47:14.623Z,89.14
2022-12-28T07:48:14.565Z,88.53
2022-12-28T07:49:14.568Z,88.18
2022-12-28T07:50:14.531Z,88.48
2022-12-28T07:51:14.542Z,88.98
2022-12-28T07:52:14.593Z,88.78
2022-12-28T07:53:20.223Z,88.98
2022-12-28T07:54:14.502Z,89.48
2022-12-28T07:55:14.473Z,89.18
2022-12-28T07:56:14.684Z,88.37
2022-12-28T07:57:14.554Z,88.37
2022-12-28T07:58:14.490Z,87.68
2022-12-28T07:59:14.463Z,87.77
2022-12-28T08:00:14.426Z,88.37
2022-12-28T08:01:14.610Z,88.52
2022-12-28T08:02:14.585Z,88.82
2022-12-28T08:03:14.472Z,89.52
2022-12-28T08:04:14.432Z,89.87
2022-12-28T08:05:14.408Z,89.68
2022-12-28T08:06:14.340Z,89.68
2022-12-28T08:07:14.417Z,89.58
2022-12-28T08:08:14.396Z,89.48
2022-12-28T08:09:14.360Z,89.48
2022-12-28T08:10:14.385Z,89.48
2022-12-28T08:11:14.355Z,89.28
2022-12-28T08:12:14.286Z,89.07
2022-12-28T08:13:14.301Z,89.18
2022-12-28T08:14:14.354Z,89.37
2022-12-28T08:15:14.297Z,88.98
2022-12-28T08:16:14.470Z,89.18
2022-12-28T08:17:20.677Z,89.18
2022-12-28T08:18:14.217Z,89.07
2022-12-28T08:19:14.338Z,88.48
2022-12-28T08:20:14.341Z,88.78
2022-12-28T08:21:14.340Z,88.78
2022-12-28T08:22:14.247Z,88.82
2022-12-28T08:23:14.216Z,89.22
2022-12-28T08:24:14.316Z,89.66
2022-12-28T08:25:14.225Z,90.06
2022-12-28T08:26:14.230Z,90.36
2022-12-28T08:27:14.201Z,90.46
2022-12-28T08:28:14.182Z,90.77
2022-12-28T08:29:14.155Z,90.96
2022-12-28T08:30:14.058Z,91.47
2022-12-28T08:31:14.207Z,91.36
2022-12-28T08:32:14.073Z,91.36
2022-12-28T08:33:14.076Z,91.66
2022-12-28T08:34:14.092Z,91.66
2022-12-28T08:35:13.985Z,91.56
2022-12-28T08:36:14.051Z,91.36
2022-12-28T08:37:14.119Z,90.86
2022-12-28T08:38:14.007Z,90.96
2022-12-28T08:39:14.323Z,91.16
2022-12-28T08:40:14.083Z,91.06
2022-12-28T08:41:14.027Z,90.77
2022-12-28T08:42:14.031Z,90.86
2022-12-28T08:43:14.078Z,90.86
2022-12-28T08:44:14.286Z,91.16
2022-12-28T08:45:13.986Z,91.06
2022-12-28T08:46:14.233Z,91.36
2022-12-28T08:47:13.986Z,91.20
2022-12-28T08:48:14.482Z,91.41
2022-12-28T08:49:14.496Z,91.51
2022-12-28T08:50:18.109Z,91.31
2022-12-28T08:51:13.924Z,90.41
2022-12-28T08:52:14.036Z,90.91
2022-12-28T08:53:13.962Z,91.51
2022-12-28T08:54:13.909Z,91.61
2022-12-28T08:55:14.080Z,91.91
2022-12-28T08:56:13.830Z,92.11
2022-12-28T08:57:13.830Z,91.91
2022-12-28T08:58:13.838Z,91.81
2022-12-28T08:59:13.770Z,91.91
2022-12-28T09:00:13.737Z,92.21
2022-12-28T09:01:13.964Z,92.61
2022-12-28T09:02:13.852Z,92.41
2022-12-28T09:03:13.946Z,92.81
2022-12-28T09:04:13.713Z,92.71
2022-12-28T09:05:13.689Z,92.51
2022-12-28T09:06:13.691Z,92.71
2022-12-28T09:07:13.691Z,92.21
2022-12-28T09:08:13.732Z,92.31
2022-12-28T09:09:13.645Z,92.01
2022-12-28T09:10:13.753Z,92.11
2022-12-28T09:11:13.666Z,92.21
2022-12-28T09:12:13.663Z,92.01
2022-12-28T09:13:13.601Z,92.15
2022-12-28T09:14:22.257Z,91.96
2022-12-28T09:15:13.666Z,92.35
2022-12-28T09:16:13.751Z,92.66
2022-12-28T09:17:13.626Z,92.85
2022-12-28T09:18:13.593Z,92.85
2022-12-28T09:19:13.572Z,92.35
2022-12-28T09:20:13.577Z,92.25
2022-12-28T09:21:13.512Z,91.75
2022-12-28T09:22:13.585Z,92.25
2022-12-28T09:23:13.490Z,92.55
2022-12-28T09:24:13.525Z,92.35
2022-12-28T09:25:13.501Z,92.46
2022-12-28T09:26:13.517Z,91.96
2022-12-28T09:27:13.455Z,91.55
2022-12-28T09:28:13.524Z,92.00
2022-12-28T09:29:13.589Z,92.00
2022-12-28T09:30:13.461Z,91.80
2022-12-28T09:31:13.530Z,92.40
2022-12-28T09:32:13.429Z,92.40
2022-12-28T09:33:13.430Z,92.35
2022-12-28T09:35:13.432Z,92.46
2022-12-28T09:36:13.376Z,92.05
2022-12-28T09:37:13.350Z,91.75
2022-12-28T09:38:13.355Z,92.15
2022-12-28T09:39:13.486Z,91.85
2022-12-28T09:40:13.372Z,91.55
2022-12-28T09:41:13.331Z,91.51
2022-12-28T09:42:13.324Z,91.81
2022-12-28T09:43:13.355Z,91.71
2022-12-28T09:44:13.359Z,91.61
2022-12-28T09:45:13.259Z,90.91
2022-12-28T09:46:13.424Z,91.01
2022-12-28T09:47:13.327Z,91.11
2022-12-28T09:48:13.339Z,90.70
2022-12-28T09:49:13.283Z,90.70
2022-12-28T09:50:13.348Z,91.01
2022-12-28T09:51:13.301Z,91.11
2022-12-28T09:52:13.662Z,91.11
2022-12-28T09:53:13.211Z,91.01
2022-12-28T09:54:13.246Z,90.66
2022-12-28T09:55:13.266Z,90.31
2022-12-28T09:56:13.138Z,90.46
2022-12-28T09:57:13.278Z,90.46
2022-12-28T09:58:15.026Z,90.36
2022-12-28T09:59:13.152Z,90.06
2022-12-28T10:00:13.919Z,90.56
2022-12-28T10:01:13.310Z,90.20
2022-12-28T10:02:13.190Z,90.50
2022-12-28T10:03:13.173Z,90.81
2022-12-28T10:04:13.220Z,90.91
2022-12-28T10:05:13.134Z,91.11
2022-12-28T10:06:13.131Z,91.31
2022-12-28T10:07:13.033Z,91.41
2022-12-28T10:08:13.040Z,91.11
2022-12-28T10:09:13.048Z,90.00
2022-12-28T10:10:13.157Z,90.41
2022-12-28T10:11:13.063Z,90.70
2022-12-28T10:12:16.250Z,90.91
2022-12-28T10:13:45.496Z,90.61
2022-12-28T10:14:12.980Z,90.91
2022-12-28T10:15:12.984Z,91.01
2022-12-28T10:16:13.208Z,91.20
2022-12-28T10:17:13.596Z,91.01
2022-12-28T10:18:13.009Z,90.70
2022-12-28T10:19:13.011Z,91.01
2022-12-28T10:20:13.027Z,91.01
2022-12-28T10:21:12.926Z,90.81
2022-12-28T10:22:13.026Z,90.81
2022-12-28T10:23:12.870Z,91.20
2022-12-28T10:24:30.945Z,91.51
2022-12-28T10:25:12.955Z,91.71
2022-12-28T10:26:12.888Z,91.91
2022-12-28T10:27:12.859Z,91.61
2022-12-28T10:28:14.624Z,91.11
2022-12-28T10:29:12.881Z,90.65
2022-12-28T10:30:12.891Z,90.65
2022-12-28T10:31:12.902Z,91.15
2022-12-28T10:32:12.873Z,91.25
2022-12-28T10:33:14.012Z,90.85
2022-12-28T10:34:13.536Z,91.35
2022-12-28T10:35:12.809Z,91.55
2022-12-28T10:36:12.731Z,91.45
2022-12-28T10:37:14.561Z,91.35
2022-12-28T10:38:12.745Z,91.75
2022-12-28T10:39:12.668Z,91.85
2022-12-28T10:40:13.045Z,91.39
2022-12-28T10:41:12.695Z,91.09
2022-12-28T10:42:12.656Z,91.80
2022-12-28T10:43:12.597Z,92.10
2022-12-28T10:44:38.444Z,92.10
2022-12-28T10:45:12.615Z,92.30
2022-12-28T10:46:14.557Z,92.70
2022-12-28T10:47:12.619Z,93.00
2022-12-28T10:48:12.630Z,92.60
2022-12-28T10:49:15.672Z,92.00
2022-12-28T10:50:36.597Z,92.30
2022-12-28T10:51:12.558Z,92.65
2022-12-28T10:52:13.063Z,92.34
2022-12-28T10:53:12.620Z,92.84
2022-12-28T10:54:13.488Z,92.65
2022-12-28T10:55:12.509Z,92.84
2022-12-28T10:56:12.483Z,92.94
2022-12-28T10:57:12.556Z,92.65
2022-12-28T10:58:30.355Z,92.94
2022-12-28T10:59:12.584Z,93.15
2022-12-28T11:00:12.506Z,93.35
2022-12-28T11:01:12.623Z,93.44
2022-12-28T11:02:12.584Z,93.44
2022-12-28T11:03:12.572Z,93.65
2022-12-28T11:04:12.427Z,93.55
2022-12-28T11:05:12.443Z,93.35
2022-12-28T11:06:12.444Z,93.04
2022-12-28T11:07:12.401Z,92.94
2022-12-28T11:08:12.351Z,93.04
2022-12-28T11:09:12.368Z,92.94
2022-12-28T11:10:12.583Z,93.15
2022-12-28T11:11:12.358Z,92.74
2022-12-28T11:12:12.382Z,92.44
2022-12-28T11:13:15.770Z,92.14
2022-12-28T11:14:12.454Z,92.24
2022-12-28T11:15:12.913Z,91.64
2022-12-28T11:16:12.612Z,92.14
2022-12-28T11:17:12.407Z,91.84
2022-12-28T11:18:12.277Z,91.14
2022-12-28T11:19:12.233Z,91.44
2022-12-28T11:20:12.290Z,91.64
2022-12-28T11:21:12.437Z,91.14
2022-12-28T11:22:12.619Z,90.99
2022-12-28T11:23:12.310Z,91.09
2022-12-28T11:24:12.150Z,90.89
2022-12-28T11:25:12.851Z,91.09
2022-12-28T11:26:12.232Z,91.19
2022-12-28T11:27:12.342Z,90.09
2022-12-28T11:28:12.359Z,89.79
2022-12-28T11:29:12.157Z,89.39
2022-12-28T11:30:17.139Z,89.29
2022-12-28T11:31:12.177Z,89.39
2022-12-28T11:32:12.796Z,89.49
2022-12-28T11:33:12.182Z,89.79
2022-12-28T11:34:12.140Z,89.43
2022-12-28T11:35:12.181Z,89.53
2022-12-28T11:36:12.091Z,90.03
2022-12-28T11:37:12.102Z,89.53
2022-12-28T11:38:12.236Z,89.83
2022-12-28T11:39:12.113Z,89.94
2022-12-28T11:40:12.125Z,89.83
2022-12-28T11:41:12.128Z,89.83
2022-12-28T11:43:12.041Z,90.44
2022-12-28T11:44:12.007Z,90.03
2022-12-28T11:45:12.173Z,90.23
2022-12-28T11:46:12.162Z,90.53
2022-12-28T11:47:12.544Z,90.64
2022-12-28T11:48:12.035Z,89.63
2022-12-28T11:49:12.019Z,89.73
2022-12-28T11:50:11.993Z,90.53
2022-12-28T11:51:11.954Z,90.33
2022-12-28T11:52:12.002Z,90.13
2022-12-28T11:53:14.006Z,90.33
2022-12-28T11:54:11.872Z,90.44
2022-12-28T11:55:11.920Z,90.44
2022-12-28T11:56:11.935Z,90.23
2022-12-28T11:57:11.935Z,90.53
2022-12-28T11:58:11.847Z,89.63
2022-12-28T11:59:11.805Z,89.83
2022-12-28T12:00:14.804Z,90.03
2022-12-28T12:01:12.158Z,90.84
2022-12-28T12:02:11.880Z,90.13
2022-12-28T12:03:11.839Z,90.23
2022-12-28T12:04:11.778Z,90.73
2022-12-28T12:05:11.798Z,91.03
2022-12-28T12:06:11.741Z,90.23
2022-12-28T12:07:11.754Z,90.23
2022-12-28T12:08:11.714Z,90.44
2022-12-28T12:09:11.810Z,90.64
2022-12-28T12:10:11.711Z,90.49
2022-12-28T12:11:11.682Z,90.59
2022-12-28T12:12:15.937Z,90.09
2022-12-28T12:13:11.686Z,89.99
2022-12-28T12:14:11.803Z,89.69
2022-12-28T12:15:11.702Z,90.59
2022-12-28T12:16:11.653Z,90.49
2022-12-28T12:17:11.868Z,90.19
2022-12-28T12:18:11.627Z,88.99
2022-12-28T12:19:11.676Z,89.69
2022-12-28T12:20:11.574Z,89.89
2022-12-28T12:21:15.744Z,89.59
2022-12-28T12:22:11.589Z,89.29
2022-12-28T12:23:11.631Z,89.49
2022-12-28T12:24:11.561Z,89.09
2022-12-28T12:25:12.078Z,88.09
2022-12-28T12:26:11.571Z,88.18
2022-12-28T12:27:13.472Z,88.89
2022-12-28T12:28:11.558Z,88.79
2022-12-28T12:29:11.494Z,88.89
2022-12-28T12:30:11.571Z,89.39
2022-12-28T12:31:11.574Z,89.54
2022-12-28T12:32:11.707Z,89.34
2022-12-28T12:33:11.454Z,88.64
2022-12-28T12:34:17.572Z,89.45
2022-12-28T12:35:11.425Z,89.25
2022-12-28T12:36:11.538Z,88.44
2022-12-28T12:37:11.439Z,88.64
2022-12-28T12:38:11.399Z,88.34
2022-12-28T12:39:11.458Z,87.70
2022-12-28T12:40:11.509Z,87.90
2022-12-28T12:41:11.406Z,88.20
2022-12-28T12:42:11.372Z,87.90
2022-12-28T12:43:11.420Z,86.40
2022-12-28T12:44:11.332Z,86.10
2022-12-28T12:45:11.332Z,86.10
2022-12-28T12:46:11.335Z,84.09
2022-12-28T12:47:11.311Z,84.79
2022-12-28T12:48:11.352Z,84.69
2022-12-28T12:49:11.318Z,85.99
2022-12-28T12:50:11.357Z,84.69
2022-12-28T12:51:11.378Z,84.19
2022-12-28T12:52:11.280Z,84.89
2022-12-28T12:53:11.337Z,85.99
2022-12-28T12:54:11.222Z,84.39